createdAt,value
2023-03-02T00:00:45.696Z,94829.34
2023-03-02T00:03:13.726Z,94825.72
2023-03-02T00:05:40.622Z,94834.25
2023-03-02T00:08:08.946Z,94832.00
2023-03-02T00:10:36.350Z,94829.56
2023-03-02T00:13:15.049Z,94830.28
2023-03-02T00:15:41.597Z,94825.97
2023-03-02T00:18:08.153Z,94826.88
2023-03-02T00:20:34.906Z,94825.34
2023-03-02T00:23:01.518Z,94834.09
2023-03-02T00:25:28.111Z,94826.34
2023-03-02T00:27:54.753Z,94828.41
2023-03-02T00:30:22.013Z,94826.53
2023-03-02T00:32:51.675Z,94822.75
2023-03-02T00:35:18.510Z,94823.38
2023-03-02T00:37:45.068Z,94819.50
2023-03-02T00:40:12.209Z,94826.59
2023-03-02T00:42:38.772Z,94827.13
2023-03-02T00:45:05.987Z,94808.66
2023-03-02T00:47:36.891Z,94810.44
2023-03-02T00:50:06.267Z,94808.50
2023-03-02T00:52:33.426Z,94805.94
2023-03-02T00:54:59.974Z,94806.09
2023-03-02T00:57:26.459Z,94810.59
2023-03-02T00:59:53.574Z,94802.72
2023-03-02T01:02:20.143Z,94815.50
2023-03-02T01:04:47.220Z,94806.53
2023-03-02T01:07:18.211Z,94809.22
2023-03-02T01:09:45.330Z,94808.22
2023-03-02T01:12:12.355Z,94807.22
2023-03-02T01:14:41.454Z,94802.91
2023-03-02T01:17:10.193Z,94804.22
2023-03-02T01:19:37.862Z,94804.59
2023-03-02T01:22:04.517Z,94811.50
2023-03-02T01:24:31.048Z,94800.56
2023-03-02T01:26:57.559Z,94793.97
2023-03-02T01:29:24.053Z,94793.75
2023-03-02T01:31:51.309Z,94797.44
2023-03-02T01:34:17.885Z,94797.34
2023-03-02T01:36:46.769Z,94794.44
2023-03-02T01:39:13.787Z,94794.91
2023-03-02T01:41:43.517Z,94798.97
2023-03-02T01:44:48.234Z,94810.53
2023-03-02T01:47:27.522Z,94810.56
2023-03-02T01:50:01.620Z,94813.69
2023-03-02T01:52:29.552Z,94810.97
2023-03-02T01:54:58.127Z,94806.25
2023-03-02T01:57:28.765Z,94798.69
2023-03-02T01:59:59.717Z,94798.41
2023-03-02T02:02:26.526Z,94803.28
2023-03-02T02:04:55.032Z,94801.59
2023-03-02T02:07:21.719Z,94794.63
2023-03-02T02:09:50.290Z,94797.56
2023-03-02T02:12:19.750Z,94792.72
2023-03-02T02:14:47.191Z,94796.44
2023-03-02T02:17:14.898Z,94799.78
2023-03-02T02:20:13.728Z,94792.00
2023-03-02T02:23:14.244Z,94800.25
2023-03-02T02:25:52.640Z,94798.19
2023-03-02T02:28:26.920Z,94800.25
2023-03-02T02:31:24.723Z,94798.75
2023-03-02T02:33:55.613Z,94798.00
2023-03-02T02:36:26.408Z,94804.03
2023-03-02T02:38:55.106Z,94803.63
2023-03-02T02:41:25.070Z,94798.50
2023-03-02T02:43:51.974Z,94798.50
2023-03-02T02:46:18.744Z,94800.09
2023-03-02T02:48:48.715Z,94798.50
2023-03-02T02:51:20.361Z,94796.63
2023-03-02T02:53:56.551Z,94796.56
2023-03-02T02:56:26.614Z,94794.19
2023-03-02T02:58:55.060Z,94799.09
2023-03-02T03:01:23.341Z,94800.50
2023-03-02T03:03:56.824Z,94795.34
2023-03-02T03:06:33.237Z,94794.09
2023-03-02T03:09:03.014Z,94787.59
2023-03-02T03:11:31.609Z,94802.00
2023-03-02T03:14:05.511Z,94812.66
2023-03-02T03:16:33.293Z,94805.09
2023-03-02T03:19:05.911Z,94797.06
2023-03-02T03:21:32.709Z,94803.97
2023-03-02T03:24:00.062Z,94806.75
2023-03-02T03:26:26.579Z,94801.75
2023-03-02T03:28:53.093Z,94814.38
2023-03-02T03:31:19.661Z,94815.66
2023-03-02T03:33:46.857Z,94818.50
2023-03-02T03:36:13.637Z,94815.53
2023-03-02T03:38:42.921Z,94815.22
2023-03-02T03:41:09.454Z,94822.72
2023-03-02T03:43:36.227Z,94812.41
2023-03-02T03:46:02.810Z,94815.53
2023-03-02T03:48:29.439Z,94815.03
2023-03-02T03:50:55.935Z,94811.38
2023-03-02T03:53:23.585Z,94815.84
2023-03-02T03:55:50.076Z,94812.97
2023-03-02T03:58:16.768Z,94809.78
2023-03-02T04:00:43.318Z,94811.50
2023-03-02T04:03:09.863Z,94811.81
2023-03-02T04:05:36.360Z,94806.47
2023-03-02T04:08:02.906Z,94816.03
2023-03-02T04:10:29.526Z,94814.84
2023-03-02T04:12:56.561Z,94812.44
2023-03-02T04:15:23.421Z,94815.38
2023-03-02T04:17:49.978Z,94815.47
2023-03-02T04:20:17.933Z,94812.06
2023-03-02T04:22:47.117Z,94816.28
2023-03-02T04:25:15.161Z,94816.47
2023-03-02T04:27:43.550Z,94819.09
2023-03-02T04:30:11.514Z,94819.94
2023-03-02T04:32:38.144Z,94815.72
2023-03-02T04:35:05.222Z,94819.94
2023-03-02T04:37:31.767Z,94838.84
2023-03-02T04:39:58.396Z,94843.66
2023-03-02T04:42:24.906Z,94835.66
2023-03-02T04:44:51.891Z,94839.72
2023-03-02T04:47:18.427Z,94836.72
2023-03-02T04:49:45.245Z,94844.34
2023-03-02T04:52:12.008Z,94846.47
2023-03-02T04:54:38.553Z,94852.19
2023-03-02T04:57:05.107Z,94849.38
2023-03-02T04:59:31.626Z,94855.09
2023-03-02T05:01:59.720Z,94856.34
2023-03-02T05:04:27.900Z,94854.03
2023-03-02T05:06:54.993Z,94850.91
2023-03-02T05:09:21.706Z,94848.66
2023-03-02T05:11:48.190Z,94848.28
2023-03-02T05:14:17.242Z,94844.41
2023-03-02T05:16:43.931Z,94840.66
2023-03-02T05:19:11.696Z,94836.06
2023-03-02T05:21:39.246Z,94834.75
2023-03-02T05:24:06.118Z,94847.25
2023-03-02T05:26:32.938Z,94853.28
2023-03-02T05:28:59.721Z,94851.47
2023-03-02T05:31:35.321Z,94851.69
2023-03-02T05:34:03.450Z,94848.09
2023-03-02T05:36:30.349Z,94845.53
2023-03-02T05:38:56.982Z,94849.56
2023-03-02T05:41:23.582Z,94857.25
2023-03-02T05:43:50.179Z,94855.31
2023-03-02T05:46:17.079Z,94859.28
2023-03-02T05:48:43.786Z,94862.56
2023-03-02T05:51:10.359Z,94854.72
2023-03-02T05:53:37.190Z,94862.19
2023-03-02T05:56:03.874Z,94867.19
2023-03-02T05:58:30.350Z,94872.88
2023-03-02T06:00:57.890Z,94875.06
2023-03-02T06:03:24.436Z,94881.28
2023-03-02T06:05:51.165Z,94883.22
2023-03-02T06:08:21.146Z,94900.81
2023-03-02T06:10:48.275Z,94894.00
2023-03-02T06:13:14.856Z,94898.47
2023-03-02T06:15:44.383Z,94897.00
2023-03-02T06:18:10.955Z,94901.59
2023-03-02T06:20:37.459Z,94899.19
2023-03-02T06:23:03.954Z,94900.72
2023-03-02T06:25:30.633Z,94904.88
2023-03-02T06:27:57.592Z,94901.28
2023-03-02T06:30:25.783Z,94911.13
2023-03-02T06:32:52.435Z,94903.22
2023-03-02T06:35:19.347Z,94906.91
2023-03-02T06:37:45.951Z,94902.22
2023-03-02T06:40:13.234Z,94911.34
2023-03-02T06:42:40.809Z,94914.25
2023-03-02T06:45:08.174Z,94918.72
2023-03-02T06:47:34.669Z,94916.00
2023-03-02T06:50:01.275Z,94923.56
2023-03-02T06:52:28.090Z,94926.44
2023-03-02T06:54:55.091Z,94929.44
2023-03-02T06:57:21.610Z,94933.44
2023-03-02T06:59:48.104Z,94932.69
2023-03-02T07:02:14.632Z,94922.66
2023-03-02T07:04:41.900Z,94929.00
2023-03-02T07:07:09.546Z,94930.22
2023-03-02T07:09:36.089Z,94935.28
2023-03-02T07:12:02.569Z,94930.34
2023-03-02T07:14:29.074Z,94933.56
2023-03-02T07:16:55.613Z,94930.34
2023-03-02T07:19:22.114Z,94936.03
2023-03-02T07:21:48.641Z,94936.03
2023-03-02T07:24:15.168Z,94948.00
2023-03-02T07:26:41.765Z,94949.22
2023-03-02T07:29:08.270Z,94942.97
2023-03-02T07:31:35.096Z,94940.94
2023-03-02T07:34:01.724Z,94938.44
2023-03-02T07:36:28.283Z,94946.78
2023-03-02T07:38:54.777Z,94941.41
2023-03-02T07:41:21.355Z,94935.28
2023-03-02T07:43:47.872Z,94939.06
2023-03-02T07:46:14.430Z,94935.63
2023-03-02T07:48:41.489Z,94941.59
2023-03-02T07:51:07.987Z,94939.47
2023-03-02T07:53:34.861Z,94956.41
2023-03-02T07:56:06.546Z,94956.34
2023-03-02T07:58:33.043Z,94957.84
2023-03-02T08:00:59.656Z,94963.09
2023-03-02T08:03:26.416Z,94964.97
2023-03-02T08:05:52.883Z,94960.00
2023-03-02T08:08:19.407Z,94962.06
2023-03-02T08:10:45.908Z,94968.31
2023-03-02T08:13:15.519Z,94961.47
2023-03-02T08:15:42.030Z,94967.78
2023-03-02T08:18:10.528Z,94966.44
2023-03-02T08:20:40.141Z,94975.78
2023-03-02T08:23:08.624Z,94978.63
2023-03-02T08:25:35.139Z,94979.66
2023-03-02T08:28:01.635Z,94978.63
2023-03-02T08:30:28.242Z,94977.41
2023-03-02T08:32:55.279Z,94983.88
2023-03-02T08:35:21.946Z,94978.03
2023-03-02T08:37:48.453Z,94981.88
2023-03-02T08:40:17.036Z,94977.44
2023-03-02T08:42:43.537Z,94986.13
2023-03-02T08:45:10.253Z,94984.13
2023-03-02T08:47:38.730Z,94983.53
2023-03-02T08:50:05.860Z,94982.28
2023-03-02T08:52:35.234Z,94975.16
2023-03-02T08:55:03.742Z,94976.00
2023-03-02T08:57:30.675Z,94980.66
2023-03-02T08:59:57.294Z,94978.03
2023-03-02T09:02:23.857Z,94980.66
2023-03-02T09:04:50.412Z,94980.22
2023-03-02T09:07:17.034Z,94978.66
2023-03-02T09:09:43.817Z,94984.31
2023-03-02T09:12:10.401Z,94977.44
2023-03-02T09:14:36.965Z,94985.31
2023-03-02T09:17:03.466Z,94985.53
2023-03-02T09:19:30.000Z,94994.38
2023-03-02T09:21:56.528Z,94994.56
2023-03-02T09:24:23.055Z,94991.63
2023-03-02T09:26:49.532Z,94992.59
2023-03-02T09:29:16.021Z,94997.91
2023-03-02T09:31:42.622Z,95007.50
2023-03-02T09:34:09.698Z,94998.22
2023-03-02T09:36:36.386Z,95004.41
2023-03-02T09:39:02.962Z,95004.94
2023-03-02T09:41:37.198Z,95006.44
2023-03-02T09:44:25.619Z,94994.72
2023-03-02T09:47:35.775Z,94997.94
2023-03-02T09:50:17.103Z,94997.09
2023-03-02T09:53:06.837Z,94997.69
2023-03-02T09:55:36.374Z,95004.47
2023-03-02T09:58:07.031Z,95003.91
2023-03-02T10:00:39.372Z,94996.31
2023-03-02T10:03:19.899Z,94999.59
2023-03-02T10:05:48.837Z,94997.38
2023-03-02T10:08:18.337Z,95003.91
2023-03-02T10:10:53.271Z,95000.56
2023-03-02T10:13:22.361Z,94997.81
2023-03-02T10:15:57.881Z,95002.00
2023-03-02T10:18:32.892Z,95006.44
2023-03-02T10:21:16.485Z,95007.84
2023-03-02T10:23:52.151Z,95010.91
2023-03-02T10:26:24.744Z,95018.56
2023-03-02T10:29:07.895Z,95013.78
2023-03-02T10:31:34.387Z,95014.88
2023-03-02T10:34:01.260Z,95020.09
2023-03-02T10:36:36.032Z,95023.91
2023-03-02T10:39:03.485Z,95028.75
2023-03-02T10:41:36.540Z,95025.84
2023-03-02T10:44:31.441Z,95023.03
2023-03-02T10:46:58.022Z,95022.44
2023-03-02T10:49:32.679Z,95028.97
2023-03-02T10:52:03.032Z,95029.16
2023-03-02T10:54:30.371Z,95030.34
2023-03-02T10:57:02.911Z,95027.41
2023-03-02T10:59:39.429Z,95017.41
2023-03-02T11:02:14.129Z,95020.34
2023-03-02T11:04:40.844Z,95018.28
2023-03-02T11:07:15.692Z,95014.06
2023-03-02T11:09:44.756Z,95018.25
2023-03-02T11:12:15.323Z,95017.38
2023-03-02T11:14:41.836Z,95009.81
2023-03-02T11:17:40.448Z,95015.28
2023-03-02T11:20:15.178Z,95016.38
2023-03-02T11:23:19.647Z,95022.72
2023-03-02T11:25:53.145Z,95018.94
2023-03-02T11:28:25.747Z,95016.06
2023-03-02T11:30:53.894Z,95019.06
2023-03-02T11:33:26.005Z,95024.81
2023-03-02T11:35:59.308Z,95015.47
2023-03-02T11:38:28.915Z,95015.94
2023-03-02T11:41:14.191Z,95014.59
2023-03-02T11:43:41.030Z,95016.34
2023-03-02T11:46:21.657Z,95008.88
2023-03-02T11:48:51.780Z,95013.06
2023-03-02T11:51:23.696Z,95013.69
2023-03-02T11:53:58.586Z,95011.69
2023-03-02T11:56:26.790Z,95019.56
2023-03-02T11:58:59.053Z,95017.09
2023-03-02T12:01:26.972Z,95011.38
2023-03-02T12:03:53.896Z,95005.78
2023-03-02T12:06:20.296Z,95017.81
2023-03-02T12:08:49.512Z,95012.28
2023-03-02T12:11:19.102Z,95009.03
2023-03-02T12:13:54.559Z,95009.84
2023-03-02T12:16:37.238Z,95006.16
2023-03-02T12:19:16.043Z,95013.97
2023-03-02T12:21:56.635Z,95008.06
2023-03-02T12:24:28.752Z,95005.25
2023-03-02T12:27:01.295Z,94997.69
2023-03-02T12:29:38.856Z,94991.75
2023-03-02T12:32:23.699Z,94998.81
2023-03-02T12:34:56.683Z,94980.09
2023-03-02T12:37:32.061Z,94991.66
2023-03-02T12:40:18.475Z,94980.50
2023-03-02T12:42:53.953Z,94974.97
2023-03-02T12:45:25.026Z,94979.91
2023-03-02T12:48:00.897Z,94985.25
2023-03-02T12:50:30.989Z,94971.19
2023-03-02T12:53:05.573Z,94969.34
2023-03-02T12:55:32.548Z,94965.06
2023-03-02T12:58:01.882Z,94963.78
2023-03-02T13:00:31.825Z,94964.72
2023-03-02T13:02:59.770Z,94962.06
2023-03-02T13:05:32.815Z,94953.72
2023-03-02T13:08:02.110Z,94953.09
2023-03-02T13:10:38.244Z,94946.53
2023-03-02T13:13:14.979Z,94942.44
2023-03-02T13:15:56.202Z,94952.38
2023-03-02T13:18:24.682Z,94944.53
2023-03-02T13:20:51.948Z,94954.06
2023-03-02T13:23:19.202Z,94951.88
2023-03-02T13:25:57.829Z,94952.81
2023-03-02T13:28:29.626Z,94947.97
2023-03-02T13:31:05.545Z,94943.84
2023-03-02T13:33:33.920Z,94945.34
2023-03-02T13:36:00.434Z,94950.38
2023-03-02T13:38:31.499Z,94945.97
2023-03-02T13:40:58.058Z,94939.78
2023-03-02T13:43:34.704Z,94943.75
2023-03-02T13:46:05.442Z,94939.84
2023-03-02T13:48:32.485Z,94932.91
2023-03-02T13:51:17.651Z,94935.72
2023-03-02T13:53:52.031Z,94933.84
2023-03-02T13:56:21.414Z,94931.19
2023-03-02T13:58:49.066Z,94928.66
2023-03-02T14:01:15.890Z,94931.59
2023-03-02T14:03:42.537Z,94931.84
2023-03-02T14:06:09.337Z,94934.38
2023-03-02T14:08:35.913Z,94933.84
2023-03-02T14:11:04.278Z,94925.66
2023-03-02T14:13:37.540Z,94927.34
2023-03-02T14:16:04.601Z,94919.09
2023-03-02T14:18:37.717Z,94926.13
2023-03-02T14:21:05.078Z,94923.53
2023-03-02T14:23:33.927Z,94919.78
2023-03-02T14:26:00.508Z,94922.56
2023-03-02T14:28:33.908Z,94924.81
2023-03-02T14:31:00.404Z,94920.38
2023-03-02T14:33:27.165Z,94926.06
2023-03-02T14:35:56.665Z,94926.31
2023-03-02T14:38:25.013Z,94923.59
2023-03-02T14:40:52.257Z,94918.06
2023-03-02T14:43:18.881Z,94916.09
2023-03-02T14:45:46.341Z,94913.25
2023-03-02T14:48:13.051Z,94919.28
2023-03-02T14:50:41.168Z,94916.56
2023-03-02T14:53:12.852Z,94917.38
2023-03-02T14:55:40.525Z,94920.38
2023-03-02T14:58:13.092Z,94927.28
2023-03-02T15:00:39.587Z,94921.78
2023-03-02T15:03:06.241Z,94923.44
2023-03-02T15:05:36.929Z,94915.69
2023-03-02T15:08:03.539Z,94913.78
2023-03-02T15:10:35.836Z,94920.16
2023-03-02T15:13:04.465Z,94916.69
2023-03-02T15:15:32.718Z,94911.13
2023-03-02T15:17:59.200Z,94917.91
2023-03-02T15:20:25.655Z,94921.19
2023-03-02T15:22:52.598Z,94920.09
2023-03-02T15:25:19.096Z,94920.38
2023-03-02T15:27:45.733Z,94920.53
2023-03-02T15:30:12.451Z,94919.78
2023-03-02T15:32:39.064Z,94926.06
2023-03-02T15:35:06.250Z,94920.97
2023-03-02T15:37:35.297Z,94923.59
2023-03-02T15:40:01.762Z,94923.59
2023-03-02T15:42:31.387Z,94921.09
2023-03-02T15:44:57.881Z,94921.25
2023-03-02T15:47:24.578Z,94929.59
2023-03-02T15:49:53.679Z,94925.59
2023-03-02T15:52:21.329Z,94914.34
2023-03-02T15:54:48.007Z,94922.38
2023-03-02T15:57:14.549Z,94923.97
2023-03-02T15:59:41.058Z,94915.34
2023-03-02T16:02:07.563Z,94916.72
2023-03-02T16:04:34.078Z,94922.28
2023-03-02T16:07:01.002Z,94921.66
2023-03-02T16:09:27.982Z,94919.44
2023-03-02T16:11:54.537Z,94920.09
2023-03-02T16:14:21.018Z,94922.06
2023-03-02T16:16:48.184Z,94923.44
2023-03-02T16:19:18.883Z,94920.22
2023-03-02T16:21:48.669Z,94924.34
2023-03-02T16:24:15.576Z,94927.41
2023-03-02T16:26:42.667Z,94934.09
2023-03-02T16:29:12.834Z,94930.50
2023-03-02T16:31:41.395Z,94949.28
2023-03-02T16:34:10.066Z,94952.56
2023-03-02T16:36:38.796Z,94949.19
2023-03-02T16:39:06.745Z,94947.91
2023-03-02T16:41:34.004Z,94943.78
2023-03-02T16:44:01.322Z,94946.84
2023-03-02T16:46:30.866Z,94951.94
2023-03-02T16:48:58.339Z,94948.28
2023-03-02T16:51:25.107Z,94947.88
2023-03-02T16:53:52.205Z,94960.41
2023-03-02T16:56:18.912Z,94956.66
2023-03-02T16:58:45.596Z,94956.63
2023-03-02T17:01:15.809Z,94957.66
2023-03-02T17:03:42.763Z,94961.91
2023-03-02T17:06:10.597Z,94965.25
2023-03-02T17:08:37.111Z,94967.69
2023-03-02T17:11:03.766Z,94970.06
2023-03-02T17:13:31.430Z,94972.09
2023-03-02T17:15:58.522Z,94969.94
2023-03-02T17:18:25.652Z,94968.53
2023-03-02T17:20:54.172Z,94974.22
2023-03-02T17:23:21.074Z,94990.44
2023-03-02T17:25:49.514Z,94989.31
2023-03-02T17:28:16.385Z,94996.69
2023-03-02T17:30:43.508Z,94993.84
2023-03-02T17:33:10.637Z,95001.41
2023-03-02T17:35:37.612Z,95004.09
2023-03-02T17:38:04.980Z,95008.97
2023-03-02T17:40:32.248Z,95013.00
2023-03-02T17:43:03.116Z,95009.81
2023-03-02T17:45:30.248Z,95012.41
2023-03-02T17:48:00.856Z,95020.75
2023-03-02T17:50:28.886Z,95027.81
2023-03-02T17:52:55.553Z,95031.66
2023-03-02T17:55:22.658Z,95040.38
2023-03-02T17:57:49.865Z,95041.38
2023-03-02T18:00:20.028Z,95045.00
2023-03-02T18:02:46.554Z,95038.97
2023-03-02T18:05:14.158Z,95047.25
2023-03-02T18:07:41.420Z,95056.34
2023-03-02T18:10:08.556Z,95051.69
2023-03-02T18:12:35.057Z,95060.00
2023-03-02T18:15:01.695Z,95055.94
2023-03-02T18:17:29.310Z,95058.34
2023-03-02T18:19:56.397Z,95059.97
2023-03-02T18:22:23.314Z,95065.19
2023-03-02T18:24:49.918Z,95062.91
2023-03-02T18:27:16.504Z,95062.72
2023-03-02T18:29:43.092Z,95070.00
2023-03-02T18:32:11.071Z,95075.31
2023-03-02T18:34:37.788Z,95069.66
2023-03-02T18:37:04.319Z,95074.31
2023-03-02T18:39:30.840Z,95074.13
2023-03-02T18:41:57.605Z,95071.06
2023-03-02T18:44:24.145Z,95080.16
2023-03-02T18:46:51.320Z,95080.34
2023-03-02T18:49:20.154Z,95086.03
2023-03-02T18:51:46.792Z,95082.16
2023-03-02T18:54:14.713Z,95080.16
2023-03-02T18:56:41.260Z,95079.53
2023-03-02T18:59:08.054Z,95084.97
2023-03-02T19:01:34.654Z,95083.16
2023-03-02T19:04:01.526Z,95083.97
2023-03-02T19:06:28.815Z,95085.44
2023-03-02T19:08:55.378Z,95084.78
2023-03-02T19:11:22.511Z,95089.81
2023-03-02T19:13:50.170Z,95090.22
2023-03-02T19:16:18.370Z,95084.81
2023-03-02T19:18:45.169Z,95092.81
2023-03-02T19:21:11.975Z,95093.03
2023-03-02T19:23:39.154Z,95098.13
2023-03-02T19:26:05.695Z,95094.47
2023-03-02T19:28:32.220Z,95093.66
2023-03-02T19:31:03.872Z,95084.53
2023-03-02T19:33:30.384Z,95090.97
2023-03-02T19:35:58.083Z,95096.88
2023-03-02T19:38:25.052Z,95092.41
2023-03-02T19:40:51.607Z,95095.88
2023-03-02T19:43:21.705Z,95093.06
2023-03-02T19:45:48.262Z,95097.53
2023-03-02T19:48:14.778Z,95092.13
2023-03-02T19:50:41.788Z,95092.88
2023-03-02T19:53:08.315Z,95090.84
2023-03-02T19:55:35.986Z,95092.09
2023-03-02T19:58:02.705Z,95091.75
2023-03-02T20:00:32.337Z,95096.38
2023-03-02T20:03:00.313Z,95097.16
2023-03-02T20:05:27.823Z,95096.41
2023-03-02T20:07:54.790Z,95097.25
2023-03-02T20:10:26.547Z,95091.56
2023-03-02T20:12:53.654Z,95089.31
2023-03-02T20:15:21.314Z,95096.84
2023-03-02T20:17:48.299Z,95097.28
2023-03-02T20:20:14.800Z,95106.69
2023-03-02T20:22:41.513Z,95102.41
2023-03-02T20:25:09.133Z,95102.38
2023-03-02T20:27:35.660Z,95100.34
2023-03-02T20:30:02.260Z,95107.44
2023-03-02T20:32:29.166Z,95108.59
2023-03-02T20:34:55.937Z,95122.78
2023-03-02T20:37:22.477Z,95114.31
2023-03-02T20:39:49.024Z,95115.13
2023-03-02T20:42:15.496Z,95114.06
2023-03-02T20:44:43.646Z,95116.47
2023-03-02T20:47:13.407Z,95122.84
2023-03-02T20:49:40.606Z,95126.28
2023-03-02T20:52:08.525Z,95123.94
2023-03-02T20:54:40.361Z,95123.50
2023-03-02T20:57:08.033Z,95131.00
2023-03-02T20:59:36.620Z,95126.72
2023-03-02T21:02:03.340Z,95134.72
2023-03-02T21:04:29.948Z,95133.47
2023-03-02T21:06:56.500Z,95128.50
2023-03-02T21:09:22.990Z,95127.81
2023-03-02T21:11:49.492Z,95130.44
2023-03-02T21:14:16.246Z,95132.41
2023-03-02T21:16:43.760Z,95140.28
2023-03-02T21:19:14.436Z,95135.06
2023-03-02T21:21:42.398Z,95142.25
2023-03-02T21:24:11.147Z,95141.81
2023-03-02T21:26:37.763Z,95140.44
2023-03-02T21:29:05.473Z,95142.09
2023-03-02T21:31:32.429Z,95141.72
2023-03-02T21:33:59.025Z,95133.06
2023-03-02T21:36:25.664Z,95131.88
2023-03-02T21:38:52.752Z,95135.88
2023-03-02T21:41:19.398Z,95133.38
2023-03-02T21:43:45.998Z,95130.69
2023-03-02T21:46:14.434Z,95125.03
2023-03-02T21:48:41.591Z,95134.56
2023-03-02T21:51:11.109Z,95137.09
2023-03-02T21:53:39.010Z,95127.97
2023-03-02T21:56:09.492Z,95128.81
2023-03-02T21:58:35.907Z,95128.47
2023-03-02T22:01:03.425Z,95123.22
2023-03-02T22:03:29.921Z,95127.38
2023-03-02T22:05:56.381Z,95125.13
2023-03-02T22:08:23.250Z,95117.88
2023-03-02T22:10:51.437Z,95127.69
2023-03-02T22:13:24.118Z,95124.28
2023-03-02T22:16:13.584Z,95123.56
2023-03-02T22:18:46.181Z,95125.00
2023-03-02T22:21:45.401Z,95121.00
2023-03-02T22:24:11.912Z,95128.38
2023-03-02T22:27:10.706Z,95128.81
2023-03-02T22:29:45.716Z,95122.69
2023-03-02T22:32:21.801Z,95123.03
2023-03-02T22:34:56.548Z,95114.25
2023-03-02T22:37:25.952Z,95115.03
2023-03-02T22:39:55.890Z,95115.13
2023-03-02T22:42:24.681Z,95119.28
2023-03-02T22:45:01.737Z,95123.28
2023-03-02T22:47:28.329Z,95118.31
2023-03-02T22:50:11.641Z,95123.72
2023-03-02T22:52:39.241Z,95119.41
2023-03-02T22:55:44.141Z,95113.28
2023-03-02T22:58:48.065Z,95110.28
2023-03-02T23:01:20.786Z,95121.72
2023-03-02T23:03:53.042Z,95115.50
2023-03-02T23:06:30.091Z,95120.41
2023-03-02T23:09:02.138Z,95111.44
2023-03-02T23:11:32.250Z,95111.59
2023-03-02T23:14:00.688Z,95130.31
2023-03-02T23:16:29.010Z,95122.66
2023-03-02T23:18:56.812Z,95114.53
2023-03-02T23:21:37.471Z,95121.81
2023-03-02T23:24:04.439Z,95119.94
2023-03-02T23:26:30.975Z,95123.28
2023-03-02T23:28:57.533Z,95119.50
2023-03-02T23:31:24.465Z,95116.13
2023-03-02T23:33:51.241Z,95114.59
2023-03-02T23:36:17.737Z,95116.75
2023-03-02T23:38:44.244Z,95119.03
2023-03-02T23:41:10.772Z,95116.88
2023-03-02T23:43:38.422Z,95121.75
2023-03-02T23:46:05.593Z,95116.97
2023-03-02T23:48:32.802Z,95115.34
2023-03-02T23:50:59.686Z,95114.81
2023-03-02T23:53:26.569Z,95115.44
2023-03-02T23:55:54.542Z,95111.75
2023-03-02T23:58:23.225Z,95114.34
